Time;durP1;ratioP1;P1;durP2;ratioP2;P2;SDS_P1;SDS_P2;PMS_P1;PMS_P2;Temp;Humidity;BMP_temperature;BMP_pressure;BME280_temperature;BME280_humidity;BME280_pressure;Samples;Min_cycle;Max_cycle;Signal;HPM_P1;HPM_P2
2021/09/23 00:05:30;;;;;;;;;25.75;21.25;;;;;18.05;100.00;102148.22;5018765;28;45472;-65
2021/09/23 00:07:56;;;;;;;;;22.00;18.50;;;;;17.96;100.00;102153.72;5019871;28;45368;-65
2021/09/23 00:10:27;;;;;;;;;20.75;19.25;;;;;17.91;100.00;102142.41;5019554;28;45422;-65
2021/09/23 00:12:55;;;;;;;;;18.00;17.50;;;;;17.92;100.00;102158.22;5019517;28;45679;-65
2021/09/23 00:15:21;;;;;;;;;20.50;19.00;;;;;17.82;100.00;102138.16;5019745;28;45359;-64
2021/09/23 00:17:52;;;;;;;;;22.50;19.25;;;;;17.89;100.00;102157.41;5019732;28;45373;-65
2021/09/23 00:20:22;;;;;;;;;18.25;17.50;;;;;17.83;100.00;102150.47;5018409;28;46507;-65
2021/09/23 00:22:51;;;;;;;;;23.00;19.50;;;;;17.85;100.00;102147.78;5019231;28;45566;-65
2021/09/23 00:25:17;;;;;;;;;22.75;20.75;;;;;17.86;100.00;102145.09;5019336;28;45259;-65
2021/09/23 00:27:43;;;;;;;;;24.50;20.50;;;;;17.84;100.00;102138.13;5019283;28;45362;-64
2021/09/23 00:36:15;;;;;;;;;20.50;20.50;;;;;17.73;100.00;102141.03;5019029;28;45341;-64
2021/09/23 00:38:41;;;;;;;;;19.75;16.75;;;;;17.64;100.00;102128.81;5019204;28;45569;-65
2021/09/23 00:41:06;;;;;;;;;18.25;16.50;;;;;17.68;100.00;102133.19;5018718;28;46534;-66
2021/09/23 00:43:32;;;;;;;;;19.50;16.50;;;;;17.68;100.00;102140.25;5001088;28;45416;-65
2021/09/23 00:45:57;;;;;;;;;24.75;21.25;;;;;17.62;100.00;102138.56;5019216;28;45301;-65
2021/09/23 00:48:22;;;;;;;;;21.75;19.00;;;;;17.58;100.00;102133.38;5018774;28;47252;-66
2021/09/23 00:50:48;;;;;;;;;18.50;15.00;;;;;17.53;100.00;102116.75;5018945;28;45379;-65
2021/09/23 00:53:18;;;;;;;;;19.75;19.50;;;;;17.45;100.00;102119.56;5018960;28;45402;-65
2021/09/23 00:55:43;;;;;;;;;21.50;19.00;;;;;17.44;100.00;102116.06;5019016;28;45325;-65
2021/09/23 00:58:09;;;;;;;;;17.25;16.00;;;;;17.46;100.00;102116.03;5019254;28;45412;-65
2021/09/23 01:00:34;;;;;;;;;21.50;19.25;;;;;17.47;100.00;102115.13;5018595;28;46557;-66
2021/09/23 01:03:00;;;;;;;;;22.75;21.00;;;;;17.43;100.00;102093.19;5018881;28;45426;-65
2021/09/23 01:05:26;;;;;;;;;19.25;19.00;;;;;17.43;100.00;102092.34;5018541;28;45253;-66
2021/09/23 01:07:52;;;;;;;;;23.50;18.25;;;;;17.39;100.00;102088.88;5001354;28;45413;-64
2021/09/23 01:10:19;;;;;;;;;19.25;18.00;;;;;17.38;100.00;102083.63;5018289;28;46283;-65
2021/09/23 01:12:45;;;;;;;;;20.25;19.25;;;;;17.29;100.00;102066.22;5018369;28;45267;-65
2021/09/23 01:15:12;;;;;;;;;13.25;11.00;;;;;17.30;100.00;102078.50;5018732;28;45340;-66
2021/09/23 01:20:59;;;;;;;;;16.75;16.75;;;;;17.07;100.00;102059.63;5018064;28;45666;-65
2021/09/23 01:23:24;;;;;;;;;22.25;20.50;;;;;17.08;100.00;102067.50;5018402;28;45304;-64
2021/09/23 01:25:50;;;;;;;;;22.00;19.50;;;;;17.00;100.00;102058.03;5018586;28;45421;-64
2021/09/23 01:28:15;;;;;;;;;20.25;18.75;;;;;16.97;100.00;102052.78;5018272;28;45254;-64
2021/09/23 01:30:40;;;;;;;;;20.25;18.25;;;;;16.98;100.00;102055.41;5017308;28;46213;-64
2021/09/23 01:33:06;;;;;;;;;22.00;21.50;;;;;16.93;100.00;102041.41;5017842;28;45279;-64
2021/09/23 01:35:31;;;;;;;;;25.75;21.75;;;;;16.93;100.00;102049.34;5018062;28;45275;-64
2021/09/23 01:37:56;;;;;;;;;19.75;19.50;;;;;16.88;100.00;102052.97;5018204;28;45214;-64
2021/09/23 01:40:25;;;;;;;;;27.50;24.75;;;;;16.88;100.00;102052.97;5017847;28;46362;-64
2021/09/23 01:42:50;;;;;;;;;21.25;19.25;;;;;16.92;100.00;102044.09;5017811;28;45690;-65
2021/09/23 01:45:15;;;;;;;;;21.25;18.00;;;;;16.92;100.00;102038.81;5000096;28;45315;-65
2021/09/23 01:51:02;;;;;;;;;18.50;16.50;;;;;16.87;100.00;102025.72;5017714;28;45354;-64
2021/09/23 01:53:28;;;;;;;;;21.00;18.25;;;;;16.91;100.00;102031.81;5017988;28;45286;-65
2021/09/23 01:55:53;;;;;;;;;19.00;18.00;;;;;16.87;100.00;102038.91;5017870;28;45249;-64
2021/09/23 01:58:18;;;;;;;;;23.25;20.00;;;;;16.85;100.00;102038.06;5018154;28;45211;-64
2021/09/23 02:00:44;;;;;;;;;20.50;19.00;;;;;16.84;100.00;102034.56;5017821;28;45576;-64
2021/09/23 02:06:31;;;;;;;;;26.25;20.25;;;;;16.81;100.00;102034.63;5015753;28;45517;-64
2021/09/23 02:08:56;;;;;;;;;20.50;18.50;;;;;16.70;100.00;102017.25;5017616;28;45208;-65
2021/09/23 02:11:22;;;;;;;;;19.00;18.00;;;;;16.73;100.00;102019.84;5017777;28;45665;-64
2021/09/23 02:13:47;;;;;;;;;18.00;16.50;;;;;16.75;100.00;102023.34;5017441;28;45294;-64
2021/09/23 02:16:12;;;;;;;;;18.00;16.50;;;;;16.75;100.00;102028.63;5017463;28;45373;-64
2021/09/23 02:18:38;;;;;;;;;20.50;18.25;;;;;16.68;100.00;102013.78;5017674;28;45266;-64
2021/09/23 02:21:03;;;;;;;;;17.75;15.25;;;;;16.65;100.00;102013.81;5017408;28;45321;-64
2021/09/23 02:23:29;;;;;;;;;19.25;17.25;;;;;16.64;100.00;102015.59;5017262;28;45414;-64
2021/09/23 02:25:54;;;;;;;;;18.50;16.00;;;;;16.60;100.00;102019.19;5017550;28;45282;-64
2021/09/23 02:28:20;;;;;;;;;16.75;16.75;;;;;16.58;100.00;102012.19;5017403;28;45223;-64
2021/09/23 02:30:45;;;;;;;;;22.00;18.25;;;;;16.49;100.00;102006.19;5017202;28;45447;-64
2021/09/23 02:36:31;;;;;;;;;15.00;15.00;;;;;16.40;100.00;102009.00;5017138;28;45292;-64
2021/09/23 02:38:57;;;;;;;;;22.00;18.25;;;;;16.37;100.00;102013.47;5017580;28;45211;-65
2021/09/23 02:41:27;;;;;;;;;18.00;16.00;;;;;16.38;100.00;102015.19;5016952;28;46017;-64
2021/09/23 02:43:53;;;;;;;;;16.25;15.00;;;;;16.38;100.00;102010.78;5020243;28;45377;-65
2021/09/23 02:46:18;;;;;;;;;20.75;17.50;;;;;16.37;100.00;102006.41;5020874;28;45346;-64
2021/09/23 02:48:43;;;;;;;;;16.50;16.00;;;;;16.34;100.00;102006.47;5020922;28;45376;-64
2021/09/23 02:51:10;;;;;;;;;15.50;13.75;;;;;16.32;100.00;102007.41;5020399;28;46060;-64
2021/09/23 02:53:36;;;;;;;;;17.25;16.75;;;;;16.26;100.00;102008.38;5020740;28;45728;-64
2021/09/23 02:56:01;;;;;;;;;16.50;14.25;;;;;16.19;100.00;102006.75;5020849;28;45305;-64
2021/09/23 02:58:27;;;;;;;;;17.75;16.00;;;;;16.16;100.00;102017.34;5020922;28;45163;-64
2021/09/23 03:00:52;;;;;;;;;20.50;16.00;;;;;16.03;100.00;102008.75;5020531;28;45271;-64
2021/09/23 03:06:39;;;;;;;;;16.25;15.00;;;;;15.99;100.00;102008.84;5020034;28;45287;-65
2021/09/23 03:09:05;;;;;;;;;15.00;13.75;;;;;15.99;100.00;101995.66;5020658;28;45343;-66
2021/09/23 03:11:30;;;;;;;;;21.00;19.25;;;;;15.97;100.00;101992.19;5020216;28;46868;-65
2021/09/23 03:13:56;;;;;;;;;20.00;16.50;;;;;15.97;100.00;101998.31;5020310;28;45356;-65
2021/09/23 03:16:22;;;;;;;;;18.25;17.25;;;;;15.98;100.00;101988.66;5020166;28;45338;-64
2021/09/23 03:18:48;;;;;;;;;16.00;15.00;;;;;16.02;100.00;101992.97;5020332;28;45429;-65
2021/09/23 03:21:13;;;;;;;;;20.50;18.75;;;;;15.97;100.00;101985.16;5020263;28;45336;-64
2021/09/23 03:23:39;;;;;;;;;18.75;17.25;;;;;15.99;100.00;101990.41;5020234;28;45296;-64
2021/09/23 03:26:05;;;;;;;;;19.00;16.00;;;;;15.90;100.00;101973.84;5020073;28;45236;-64
2021/09/23 03:28:33;;;;;;;;;15.75;15.00;;;;;15.85;100.00;101970.44;5020448;28;45333;-64
2021/09/23 03:30:59;;;;;;;;;19.00;17.50;;;;;15.88;100.00;101983.56;5020125;28;45715;-63
2021/09/23 03:36:46;;;;;;;;;16.75;15.00;;;;;15.77;100.00;101979.34;5020019;28;45370;-64
2021/09/23 03:39:13;;;;;;;;;15.25;14.50;;;;;15.75;100.00;101975.84;5002230;28;45532;-64
2021/09/23 03:41:38;;;;;;;;;17.75;15.25;;;;;15.69;100.00;101965.44;5019621;28;46990;-64
2021/09/23 03:44:04;;;;;;;;;16.00;15.25;;;;;15.67;100.00;101970.72;5019941;28;45438;-65
2021/09/23 03:46:29;;;;;;;;;14.50;13.75;;;;;15.68;100.00;101982.13;5019973;28;45585;-65
2021/09/23 03:52:16;;;;;;;;;16.25;13.00;;;;;15.59;100.00;101976.09;5019577;28;45366;-65
2021/09/23 03:54:42;;;;;;;;;15.50;13.75;;;;;15.56;100.00;101972.59;5018357;28;45464;-65
2021/09/23 03:57:07;;;;;;;;;20.25;18.75;;;;;15.47;100.00;101965.72;5019954;28;45313;-63
2021/09/23 03:59:33;;;;;;;;;17.50;15.75;;;;;15.42;100.00;101967.56;5019878;28;45608;-67
2021/09/23 04:01:58;;;;;;;;;20.00;18.25;;;;;15.41;100.00;101972.84;5019354;28;46309;-65
2021/09/23 04:04:23;;;;;;;;;16.00;15.00;;;;;15.45;100.00;101980.69;5019412;28;45365;-65
2021/09/23 04:06:49;;;;;;;;;15.25;13.25;;;;;15.42;100.00;101978.09;5019494;28;45305;-65
2021/09/23 04:09:14;;;;;;;;;15.50;14.75;;;;;15.41;100.00;101991.28;5019622;28;45545;-65
2021/09/23 04:11:40;;;;;;;;;18.25;15.25;;;;;15.33;100.00;101972.94;5019447;28;46581;-65
2021/09/23 04:14:07;;;;;;;;;18.25;13.75;;;;;15.31;100.00;101974.72;5001609;28;45616;-65
2021/09/23 04:16:33;;;;;;;;;13.50;13.50;;;;;15.32;100.00;101979.97;5019358;28;45294;-68
2021/09/23 04:22:21;;;;;;;;;17.50;14.50;;;;;15.22;100.00;101988.03;5019112;28;45868;-65
2021/09/23 04:24:46;;;;;;;;;20.25;18.00;;;;;15.17;100.00;101990.72;5019324;28;45255;-66
2021/09/23 04:27:12;;;;;;;;;15.00;13.00;;;;;15.14;100.00;101984.59;5018864;28;45198;-65
2021/09/23 04:29:40;;;;;;;;;18.00;14.75;;;;;15.14;100.00;101992.50;5019385;28;45384;-65
2021/09/23 04:32:06;;;;;;;;;16.00;14.50;;;;;14.89;100.00;101958.63;5019042;28;45409;-66
2021/09/23 04:34:32;;;;;;;;;17.50;13.50;;;;;15.04;100.00;101985.63;5019119;28;45809;-65
2021/09/23 04:36:57;;;;;;;;;15.25;15.25;;;;;14.97;100.00;101983.09;5018916;28;45487;-65
2021/09/23 04:39:23;;;;;;;;;18.25;15.25;;;;;14.99;100.00;101986.56;5019017;28;45281;-64
2021/09/23 04:41:48;;;;;;;;;15.25;15.00;;;;;14.97;100.00;101982.22;5018836;28;46408;-64
2021/09/23 04:44:13;;;;;;;;;18.25;15.25;;;;;15.01;100.00;101991.78;5018907;28;45378;-64
2021/09/23 04:46:39;;;;;;;;;15.00;14.25;;;;;15.01;100.00;101991.78;5019073;28;45564;-64
2021/09/23 04:52:26;;;;;;;;;17.00;14.25;;;;;14.96;100.00;101980.47;5018427;28;45797;-65
2021/09/23 04:54:51;;;;;;;;;16.25;13.25;;;;;14.87;100.00;101963.03;5018471;28;45425;-64
2021/09/23 04:57:17;;;;;;;;;18.50;14.00;;;;;15.04;100.00;101997.00;5018554;28;45318;-64
2021/09/23 04:59:42;;;;;;;;;31.25;27.75;;;;;15.00;100.00;101995.31;5018484;28;45444;-65
2021/09/23 05:02:07;;;;;;;;;18.50;14.50;;;;;14.95;100.00;101995.38;5018273;28;46219;-65
2021/09/23 05:04:33;;;;;;;;;15.00;13.25;;;;;15.00;100.00;101997.94;5018605;28;45404;-66
2021/09/23 05:06:58;;;;;;;;;18.00;15.00;;;;;14.96;100.00;101996.25;5017527;28;45361;-65
2021/09/23 05:09:24;;;;;;;;;16.75;13.75;;;;;14.89;100.00;101991.94;5018203;28;45595;-65
2021/09/23 05:11:50;;;;;;;;;14.50;14.50;;;;;14.91;100.00;102005.94;5018152;28;46255;-66
2021/09/23 05:14:17;;;;;;;;;17.00;13.25;;;;;14.79;100.00;101996.44;5018361;28;45599;-65
2021/09/23 05:16:43;;;;;;;;;19.25;14.75;;;;;14.82;100.00;102004.28;5018434;28;45259;-64
2021/09/23 05:22:30;;;;;;;;;13.50;13.00;;;;;14.70;100.00;102009.66;5017814;28;45307;-64
2021/09/23 05:24:56;;;;;;;;;17.25;15.00;;;;;14.70;100.00;102018.44;5018204;28;45302;-65
2021/09/23 05:27:23;;;;;;;;;17.50;16.50;;;;;14.63;100.00;102010.63;5018113;28;45184;-64
2021/09/23 05:29:48;;;;;;;;;14.25;12.00;;;;;14.66;100.00;102023.75;5018354;28;45385;-65
2021/09/23 05:32:13;;;;;;;;;17.75;15.75;;;;;14.59;100.00;102020.31;4999729;28;47230;-67
2021/09/23 05:38:01;;;;;;;;;13.00;12.00;;;;;14.62;100.00;102029.91;5017936;28;45288;-65
2021/09/23 05:40:26;;;;;;;;;16.00;13.50;;;;;14.59;100.00;102029.97;5017709;28;45318;-66
2021/09/23 05:42:51;;;;;;;;;14.50;13.00;;;;;14.58;100.00;102031.72;5017434;28;45462;-66
2021/09/23 05:45:17;;;;;;;;;12.75;12.50;;;;;14.52;100.00;102034.41;5017887;28;45239;-66
2021/09/23 05:47:43;;;;;;;;;17.25;13.50;;;;;14.48;100.00;102023.91;5017613;28;45311;-65
2021/09/23 05:50:12;;;;;;;;;16.00;13.25;;;;;14.47;100.00;102030.94;5017377;28;45382;-65
2021/09/23 05:52:37;;;;;;;;;13.00;12.25;;;;;14.46;100.00;102033.56;5017392;28;46688;-67
2021/09/23 05:55:03;;;;;;;;;13.25;12.25;;;;;14.38;100.00;102016.09;5017338;28;45475;-67
2021/09/23 05:57:35;;;;;;;;;14.75;14.25;;;;;14.48;100.00;102037.06;5017454;28;45310;-66
2021/09/23 06:00:12;;;;;;;;;15.75;14.00;;;;;14.48;100.00;102043.19;5017303;28;45324;-65
2021/09/23 06:02:37;;;;;;;;;17.25;14.00;;;;;14.46;100.00;102034.44;5017056;28;46719;-66
2021/09/23 06:05:03;;;;;;;;;15.50;15.00;;;;;14.51;100.00;102039.69;5016800;28;45398;-66
2021/09/23 06:07:28;;;;;;;;;12.75;10.50;;;;;14.55;100.00;102044.88;5016624;28;45765;-66
2021/09/23 06:09:54;;;;;;;;;20.00;18.00;;;;;14.62;100.00;102049.19;5016614;28;45558;-66
2021/09/23 06:12:19;;;;;;;;;18.50;17.00;;;;;14.57;100.00;102042.25;5016446;28;47404;-67
2021/09/23 06:14:46;;;;;;;;;18.50;18.00;;;;;14.65;100.00;102050.91;5016948;28;45336;-66
2021/09/23 06:17:12;;;;;;;;;17.75;15.50;;;;;14.57;100.00;102029.09;5015824;28;45279;-67
2021/09/23 06:22:59;;;;;;;;;15.00;13.25;;;;;14.72;100.00;102051.75;5016590;28;45723;-67
2021/09/23 06:25:24;;;;;;;;;19.25;15.75;;;;;14.73;100.00;102058.75;5016751;28;45360;-68
2021/09/23 06:27:50;;;;;;;;;20.75;16.50;;;;;14.74;100.00;102057.84;5016726;28;45444;-65
2021/09/23 06:30:17;;;;;;;;;23.25;18.00;;;;;14.71;100.00;102061.38;5017272;28;45279;-66
2021/09/23 06:32:44;;;;;;;;;21.00;18.50;;;;;14.64;100.00;102046.53;5016893;28;47237;-67
2021/09/23 06:38:30;;;;;;;;;16.50;15.75;;;;;14.68;100.00;102051.75;5016647;28;45370;-66
2021/09/23 06:40:56;;;;;;;;;18.25;16.00;;;;;14.65;100.00;102045.66;5016870;28;45429;-66
2021/09/23 06:43:22;;;;;;;;;19.00;17.00;;;;;14.80;100.00;102065.66;5016512;28;47172;-67
2021/09/23 06:45:48;;;;;;;;;14.00;14.00;;;;;14.76;100.00;102059.59;5017176;28;45307;-66
2021/09/23 06:48:14;;;;;;;;;20.00;18.25;;;;;14.81;100.00;102055.13;5017031;28;45310;-66
2021/09/23 06:50:39;;;;;;;;;23.75;17.75;;;;;14.83;100.00;102055.13;5016951;28;45211;-67
2021/09/23 06:53:05;;;;;;;;;20.25;17.50;;;;;14.85;100.00;102053.34;5016194;28;47763;-67
2021/09/23 06:55:30;;;;;;;;;19.25;17.75;;;;;14.91;100.00;102061.16;5016900;28;45226;-66
2021/09/23 06:57:56;;;;;;;;;20.50;17.00;;;;;14.93;100.00;102048.84;5016665;28;45342;-66
2021/09/23 07:00:22;;;;;;;;;20.00;17.00;;;;;15.11;100.00;102072.31;5017088;28;45361;-67
2021/09/23 07:02:47;;;;;;;;;20.50;19.25;;;;;15.08;100.00;102063.59;4998630;28;47308;-66
2021/09/23 07:08:47;;;;;;;;;20.75;19.50;;;;;15.30;100.00;102072.97;5014766;28;45449;-68
2021/09/23 07:11:13;;;;;;;;;23.75;19.75;;;;;15.32;100.00;102056.28;5016692;28;45372;-67
2021/09/23 07:13:38;;;;;;;;;19.75;19.00;;;;;15.40;100.00;102058.84;5016247;28;46662;-67
2021/09/23 07:16:04;;;;;;;;;26.25;20.00;;;;;15.55;100.00;102073.53;5015981;28;45359;-67
2021/09/23 07:18:29;;;;;;;;;21.25;17.75;;;;;15.67;100.00;102068.16;5016232;28;45437;-67
2021/09/23 07:20:58;;;;;;;;;22.00;20.25;;;;;15.84;100.00;102060.88;5016412;28;45378;-68
2021/09/23 07:23:24;;;;;;;;;19.50;17.75;;;;;16.04;100.00;102057.91;4998325;28;47224;-66
2021/09/23 07:25:53;;;;;;;;;22.50;21.00;;;;;16.23;100.00;102051.44;5015997;28;45535;-66
2021/09/23 07:28:18;;;;;;;;;18.75;17.75;;;;;16.54;100.00;102053.59;5016709;28;45357;-67
2021/09/23 07:30:44;;;;;;;;;17.50;15.75;;;;;16.79;100.00;102054.03;5019654;28;45275;-66
2021/09/23 07:33:09;;;;;;;;;18.50;17.00;;;;;17.00;100.00;102042.19;5019424;28;46047;-66
2021/09/23 07:35:35;;;;;;;;;21.75;19.25;;;;;17.22;100.00;102039.97;5019465;28;45551;-67
2021/09/23 07:38:01;;;;;;;;;18.75;17.00;;;;;17.37;100.00;102023.78;5019958;28;45287;-69
2021/09/23 07:40:27;;;;;;;;;25.50;24.25;;;;;17.64;100.00;102039.03;5001772;28;45312;-67
2021/09/23 07:42:52;;;;;;;;;25.00;21.50;;;;;17.79;100.00;102021.13;5019505;28;45616;-67
2021/09/23 07:45:19;;;;;;;;;15.50;13.50;;;;;17.95;100.00;102031.28;5019708;28;45304;-68
2021/09/23 07:47:44;;;;;;;;;20.50;16.50;;;;;18.07;100.00;102030.13;5019528;28;45222;-68
2021/09/23 07:53:32;;;;;;;;;27.00;20.50;;;;;18.31;100.00;102021.56;5018993;28;45365;-68
2021/09/23 07:55:58;;;;;;;;;23.50;20.25;;;;;18.57;100.00;102014.75;5019071;28;45204;-67
2021/09/23 07:58:24;;;;;;;;;20.00;17.50;;;;;18.96;100.00;102023.34;5019349;28;45414;-68
2021/09/23 08:00:49;;;;;;;;;19.25;17.50;;;;;19.17;100.00;102012.16;5019483;28;45470;-68
2021/09/23 08:03:14;;;;;;;;;21.00;19.75;;;;;19.55;100.00;102031.34;5018825;28;47440;-68
2021/09/23 08:09:01;;;;;;;;;22.75;20.75;;;;;20.18;100.00;102024.91;5018158;28;45461;-68
2021/09/23 08:11:27;;;;;;;;;21.00;18.50;;;;;20.46;100.00;102035.47;5019136;28;45270;-67
2021/09/23 08:13:52;;;;;;;;;24.25;21.50;;;;;20.74;100.00;102033.56;5018639;28;47200;-67
2021/09/23 08:16:18;;;;;;;;;20.50;19.50;;;;;21.06;100.00;102027.09;5018916;28;45256;-68
2021/09/23 08:18:43;;;;;;;;;25.75;23.50;;;;;21.33;100.00;102014.56;5018791;28;45353;-67
2021/09/23 08:21:09;;;;;;;;;21.00;20.00;;;;;21.66;100.00;102020.34;5019120;28;45543;-67
2021/09/23 08:23:35;;;;;;;;;22.75;21.25;;;;;21.85;100.00;102011.63;5018644;28;46178;-68
2021/09/23 08:26:00;;;;;;;;;22.75;22.00;;;;;22.05;100.00;102018.81;5018846;28;45302;-68
2021/09/23 08:28:31;;;;;;;;;22.25;20.50;;;;;22.44;100.00;102026.91;5018783;28;45457;-67
2021/09/23 08:30:58;;;;;;;;;23.25;21.00;;;;;22.86;100.00;102035.69;5019238;28;45295;-67
2021/09/23 08:33:24;;;;;;;;;23.50;20.25;;;;;23.23;100.00;102036.66;5000885;28;48339;-67
2021/09/23 08:39:11;;;;;;;;;22.75;17.50;;;;;24.60;100.00;102027.22;5018530;28;45318;-70
2021/09/23 08:41:37;;;;;;;;;18.75;18.00;;;;;25.20;100.00;102027.59;5018534;28;45330;-67
2021/09/23 08:44:04;;;;;;;;;18.75;18.50;;;;;25.75;100.00;102024.50;5018764;28;45542;-67
2021/09/23 08:46:33;;;;;;;;;22.75;21.00;;;;;26.28;100.00;102022.34;5018403;28;45180;-68
2021/09/23 08:49:00;;;;;;;;;20.50;19.00;;;;;26.76;100.00;102022.06;5018249;28;45344;-67
2021/09/23 08:51:27;;;;;;;;;18.50;17.00;;;;;27.13;100.00;102022.44;5018422;28;45311;-67
2021/09/23 08:53:52;;;;;;;;;14.50;14.00;;;;;27.25;100.00;102020.81;5018211;28;46465;-66
2021/09/23 08:56:19;;;;;;;;;16.00;15.25;;;;;27.29;100.00;102022.34;5018485;28;45405;-66
2021/09/23 08:58:45;;;;;;;;;16.25;14.25;;;;;27.46;100.00;102023.00;5018396;28;45434;-66
2021/09/23 09:01:18;;;;;;;;;16.00;16.00;;;;;27.77;100.00;102021.00;5018569;28;45417;-68
2021/09/23 09:03:45;;;;;;;;;16.00;15.25;;;;;28.16;100.00;102000.50;5018123;28;46438;-67
2021/09/23 09:06:12;;;;;;;;;15.75;15.25;;;;;28.69;97.44;102018.31;5018296;28;45275;-68
2021/09/23 09:08:39;;;;;;;;;13.00;12.75;;;;;29.35;95.90;102016.28;5018012;28;45429;-67
2021/09/23 09:11:07;;;;;;;;;16.00;15.00;;;;;30.10;89.15;102023.25;5018454;28;45302;-69
2021/09/23 09:13:36;;;;;;;;;13.75;12.50;;;;;30.69;85.11;102025.84;5017977;28;45332;-67
2021/09/23 09:16:07;;;;;;;;;16.00;13.75;;;;;30.93;83.78;102014.09;5018009;28;45551;-67
2021/09/23 09:18:34;;;;;;;;;14.75;12.75;;;;;31.21;81.62;102023.53;5017954;28;45315;-67
2021/09/23 09:24:21;;;;;;;;;13.75;13.50;;;;;31.51;78.23;102009.41;5017671;28;45294;-67
2021/09/23 09:26:46;;;;;;;;;14.25;14.00;;;;;31.49;79.08;102016.78;5017550;28;45368;-67
2021/09/23 09:29:14;;;;;;;;;14.75;13.00;;;;;31.24;79.38;102023.31;5017623;28;45315;-69
2021/09/23 09:31:48;;;;;;;;;18.25;14.50;;;;;30.76;78.76;102010.03;5018158;28;45305;-67
2021/09/23 09:34:14;;;;;;;;;15.50;15.25;;;;;30.37;79.58;102017.56;5017518;28;46723;-67
2021/09/23 09:36:42;;;;;;;;;16.00;16.00;;;;;30.17;81.05;102019.09;5017599;28;45421;-67
2021/09/23 09:39:13;;;;;;;;;14.00;14.00;;;;;30.21;81.97;102016.16;5017679;28;45410;-68
2021/09/23 09:41:41;;;;;;;;;19.50;18.00;;;;;30.37;81.73;102004.09;5018195;28;45272;-67
2021/09/23 09:44:10;;;;;;;;;17.50;16.75;;;;;30.62;80.75;102008.44;5017458;28;46411;-67
2021/09/23 09:46:41;;;;;;;;;19.75;18.25;;;;;30.72;78.41;101989.69;4999585;28;45734;-67
2021/09/23 09:49:07;;;;;;;;;19.25;17.25;;;;;31.15;77.89;101997.88;5017459;28;45404;-67
2021/09/23 09:51:36;;;;;;;;;19.00;17.25;;;;;31.75;76.46;101998.44;5016873;28;45463;-67
2021/09/23 09:54:03;;;;;;;;;22.75;21.00;;;;;32.37;75.29;101990.41;5017097;28;46300;-67
2021/09/23 09:56:28;;;;;;;;;17.75;17.00;;;;;33.06;74.56;101978.94;5017583;28;45238;-68
2021/09/23 09:59:08;;;;;;;;;18.50;17.50;;;;;34.00;71.33;101969.38;5017732;28;45220;-67
2021/09/23 10:01:33;;;;;;;;;22.75;18.50;;;;;34.81;70.28;101986.84;5017379;28;45329;-68
2021/09/23 10:04:00;;;;;;;;;17.00;16.50;;;;;35.64;67.88;101986.84;5017129;28;45761;-67
2021/09/23 10:09:48;;;;;;;;;15.75;15.25;;;;;36.29;62.97;101979.25;5015962;28;45482;-67
2021/09/23 10:12:14;;;;;;;;;20.75;19.00;;;;;36.72;63.92;101979.19;5017710;28;45384;-68
2021/09/23 10:14:44;;;;;;;;;15.50;14.50;;;;;37.14;59.85;101980.25;5016848;28;45386;-68
2021/09/23 10:17:10;;;;;;;;;15.00;14.25;;;;;37.58;59.85;101972.72;5016970;28;45235;-68
2021/09/23 10:19:40;;;;;;;;;18.00;17.00;;;;;38.24;57.02;101980.72;5017005;28;45349;-68
2021/09/23 10:22:06;;;;;;;;;14.00;13.25;;;;;38.68;54.89;101974.84;5017388;28;45354;-68
2021/09/23 10:24:33;;;;;;;;;15.75;12.00;;;;;39.11;51.74;101967.16;5016775;28;46284;-68
2021/09/23 10:27:00;;;;;;;;;16.25;15.75;;;;;39.23;50.12;101963.00;5016614;28;45301;-68
2021/09/23 10:29:25;;;;;;;;;15.50;13.50;;;;;39.31;50.75;101935.59;5017169;28;45219;-68
2021/09/23 10:31:58;;;;;;;;;12.50;11.75;;;;;39.53;48.29;101971.38;5017278;28;45378;-68
2021/09/23 10:34:24;;;;;;;;;11.50;11.50;;;;;39.61;49.49;101974.91;5016973;28;46529;-67
2021/09/23 10:36:50;;;;;;;;;14.25;14.25;;;;;39.97;48.30;101957.88;5016881;28;45288;-68
2021/09/23 10:39:16;;;;;;;;;15.75;14.25;;;;;40.26;48.26;101957.03;5016964;28;45302;-68
2021/09/23 10:41:44;;;;;;;;;15.25;14.00;;;;;40.45;45.64;101940.09;5017293;28;45384;-68
2021/09/23 10:44:11;;;;;;;;;11.50;11.25;;;;;40.96;45.34;101949.19;5016552;28;47614;-67
2021/09/23 10:46:36;;;;;;;;;15.00;14.50;;;;;41.53;44.00;101945.63;5016747;28;45306;-68
2021/09/23 10:49:06;;;;;;;;;11.50;11.00;;;;;42.16;43.78;101932.06;5016733;28;45383;-68
2021/09/23 10:54:53;;;;;;;;;13.25;12.00;;;;;43.72;40.89;101931.19;5016685;28;45299;-67
2021/09/23 10:57:20;;;;;;;;;11.75;10.50;;;;;44.17;40.80;101932.22;5016528;28;45345;-68
2021/09/23 10:59:48;;;;;;;;;15.50;15.25;;;;;44.47;38.88;101920.72;5016694;28;45440;-70
2021/09/23 11:02:28;;;;;;;;;14.50;14.25;;;;;44.26;37.85;101921.81;5016852;28;45440;-68
2021/09/23 11:05:05;;;;;;;;;15.00;14.50;;;;;44.17;38.66;101915.69;5019406;28;46266;-69
2021/09/23 11:07:33;;;;;;;;;18.00;15.50;;;;;43.85;35.95;101905.53;5020195;28;45333;-69
2021/09/23 11:10:08;;;;;;;;;15.50;14.50;;;;;43.35;33.95;101903.19;5019885;28;45421;-67
2021/09/23 11:12:34;;;;;;;;;13.00;13.00;;;;;43.22;34.47;101908.63;5001975;28;45577;-70
2021/09/23 11:15:01;;;;;;;;;15.50;15.50;;;;;43.08;34.81;101902.28;5020028;28;45348;-67
2021/09/23 11:17:28;;;;;;;;;13.00;13.00;;;;;42.96;33.14;101901.19;5019764;28;45634;-69
2021/09/23 11:20:03;;;;;;;;;13.50;13.50;;;;;42.97;33.82;101894.63;5019462;28;45382;-68
2021/09/23 11:22:42;;;;;;;;;16.00;14.75;;;;;43.35;34.70;101905.94;5020164;28;45294;-69
2021/09/23 11:25:18;;;;;;;;;14.75;14.25;;;;;43.66;34.47;101902.56;5019349;28;45601;-70
2021/09/23 11:27:46;;;;;;;;;13.25;12.25;;;;;43.84;35.09;101906.59;5019582;28;45720;-67
2021/09/23 11:30:14;;;;;;;;;13.25;12.50;;;;;44.02;35.52;101908.69;5019738;28;45294;-68
2021/09/23 11:32:54;;;;;;;;;15.50;13.00;;;;;44.21;34.64;101891.31;5019681;28;45436;-68
2021/09/23 11:35:26;;;;;;;;;13.75;12.00;;;;;44.28;34.32;101892.97;5019571;28;45463;-69
2021/09/23 11:37:53;;;;;;;;;11.50;10.50;;;;;44.11;34.06;101889.00;5019091;28;45365;-68
2021/09/23 11:40:30;;;;;;;;;12.25;10.50;;;;;43.79;33.50;101906.41;5019759;28;45314;-68
2021/09/23 11:43:06;;;;;;;;;13.00;12.00;;;;;43.44;33.77;101901.06;5019518;28;45260;-68
2021/09/23 11:45:34;;;;;;;;;11.50;9.00;;;;;43.28;36.42;101894.09;5018858;28;45860;-68
2021/09/23 11:48:03;;;;;;;;;11.25;11.00;;;;;43.31;36.24;101885.44;5019623;28;45317;-69
2021/09/23 11:50:34;;;;;;;;;11.75;10.00;;;;;43.41;36.15;101885.00;5019419;28;45356;-70
2021/09/23 11:53:06;;;;;;;;;12.00;10.75;;;;;43.50;34.88;101888.41;5019658;28;45478;-69
2021/09/23 11:55:33;;;;;;;;;11.00;10.00;;;;;43.27;34.69;101872.28;5019008;28;47468;-69
2021/09/23 11:58:04;;;;;;;;;10.00;8.50;;;;;43.45;36.61;101882.66;5019043;28;45351;-69
2021/09/23 12:00:48;;;;;;;;;11.00;11.00;;;;;43.73;35.73;101883.34;5019053;28;45371;-68
2021/09/23 12:03:16;;;;;;;;;13.75;11.75;;;;;43.96;35.20;101867.22;5019006;28;45455;-68
2021/09/23 12:05:42;;;;;;;;;12.75;12.50;;;;;44.14;35.06;101862.97;5018581;28;46552;-70
2021/09/23 12:08:13;;;;;;;;;11.00;11.00;;;;;44.37;34.27;101868.81;5018663;28;45553;-68
2021/09/23 12:10:59;;;;;;;;;11.50;11.50;;;;;44.45;33.31;101875.97;5018832;28;45427;-68
2021/09/23 12:13:54;;;;;;;;;12.75;12.75;;;;;44.50;32.83;101865.16;5018864;28;45631;-69
2021/09/23 12:16:29;;;;;;;;;13.25;13.00;;;;;44.70;31.62;101865.91;5015369;28;45388;-68
2021/09/23 12:18:55;;;;;;;;;13.00;13.00;;;;;44.82;30.98;101866.06;5018818;28;45396;-68
2021/09/23 12:21:23;;;;;;;;;15.75;14.00;;;;;45.13;28.78;101868.84;5001389;28;45379;-68